Time;durP1;ratioP1;P1;durP2;ratioP2;P2;SDS_P1;SDS_P2;PMS_P1;PMS_P2;Temp;Humidity;BMP_temperature;BMP_pressure;BME280_temperature;BME280_humidity;BME280_pressure;Samples;Min_cycle;Max_cycle;Signal;HPM_P1;HPM_P2
2021/05/26 00:03:34;;;;;;;5.77;1.13;;;12.70;28.50;;;;;;10380770;28;20228;-72
2021/05/26 00:08:38;;;;;;;1.60;1.23;;;12.70;28.50;;;;;;10386753;28;20587;-72
2021/05/26 00:13:43;;;;;;;1.77;1.27;;;12.70;28.60;;;;;;10383161;28;20254;-72
2021/05/26 00:18:46;;;;;;;4.20;1.30;;;12.70;28.70;;;;;;10383422;28;20228;-72
2021/05/26 00:23:49;;;;;;;1.60;1.10;;;12.70;28.80;;;;;;10380053;28;20890;-72
2021/05/26 00:28:52;;;;;;;1.70;1.00;;;12.70;28.70;;;;;;10376322;28;20225;-72
2021/05/26 00:33:56;;;;;;;1.77;1.20;;;12.60;28.80;;;;;;10387433;28;20229;-72
2021/05/26 00:38:59;;;;;;;2.23;1.07;;;12.60;28.90;;;;;;10382604;28;20241;-72
2021/05/26 00:44:01;;;;;;;1.30;1.10;;;12.60;28.90;;;;;;10386451;28;20218;-72
2021/05/26 00:49:05;;;;;;;2.07;1.10;;;12.60;28.90;;;;;;10381257;28;20218;-72
2021/05/26 00:54:08;;;;;;;1.00;0.90;;;12.60;29.10;;;;;;10385828;28;20225;-72
2021/05/26 00:59:11;;;;;;;2.00;1.10;;;12.60;29.10;;;;;;10379616;28;20313;-72
2021/05/26 01:04:15;;;;;;;2.20;1.00;;;12.60;29.20;;;;;;10387253;28;20674;-72
2021/05/26 01:09:17;;;;;;;2.17;1.07;;;12.50;29.10;;;;;;10385457;28;20228;-72
2021/05/26 01:14:20;;;;;;;1.50;1.00;;;12.60;29.10;;;;;;10398188;28;20325;-72
2021/05/26 01:19:24;;;;;;;0.97;0.80;;;12.60;29.10;;;;;;10390208;28;20295;-72
2021/05/26 01:24:27;;;;;;;1.37;0.90;;;12.70;29.10;;;;;;10395611;28;20316;-73
2021/05/26 01:29:31;;;;;;;1.47;0.90;;;12.70;29.20;;;;;;10394211;28;20304;-72
2021/05/26 01:34:33;;;;;;;0.90;0.90;;;12.70;29.10;;;;;;10388156;28;20772;-72
2021/05/26 01:39:37;;;;;;;1.87;1.10;;;12.80;29.10;;;;;;10391835;28;20292;-72
2021/05/26 01:44:40;;;;;;;1.10;1.00;;;12.90;29.10;;;;;;10395380;28;20238;-72
2021/05/26 01:49:42;;;;;;;1.40;0.93;;;12.90;29.00;;;;;;10382039;28;20261;-72
2021/05/26 01:54:46;;;;;;;1.13;0.93;;;12.80;28.90;;;;;;10398535;28;20225;-72
2021/05/26 01:59:48;;;;;;;1.37;0.97;;;12.80;29.10;;;;;;10385940;28;20228;-72
2021/05/26 02:04:53;;;;;;;0.70;0.70;;;12.80;29.00;;;;;;10383895;28;20272;-72
2021/05/26 02:09:57;;;;;;;1.47;1.00;;;12.70;29.30;;;;;;10384891;28;20230;-72
2021/05/26 02:15:01;;;;;;;1.37;0.83;;;12.70;29.20;;;;;;10388642;28;20605;-72
2021/05/26 02:20:05;;;;;;;1.43;0.83;;;12.70;29.30;;;;;;10378823;28;20317;-72
2021/05/26 02:25:10;;;;;;;0.80;0.80;;;12.60;29.30;;;;;;10388489;28;20714;-72
2021/05/26 02:30:14;;;;;;;1.33;0.80;;;12.60;29.70;;;;;;10388421;28;20326;-72
2021/05/26 02:35:18;;;;;;;1.93;1.00;;;12.60;29.60;;;;;;10382523;28;20221;-72
2021/05/26 02:40:22;;;;;;;2.33;1.07;;;12.60;29.70;;;;;;10390009;28;20230;-72
2021/05/26 02:45:24;;;;;;;2.83;1.10;;;12.60;29.60;;;;;;10382287;28;20659;-72
2021/05/26 02:50:27;;;;;;;1.00;0.77;;;12.60;29.50;;;;;;10380074;28;20726;-72
2021/05/26 02:55:31;;;;;;;2.47;0.93;;;12.50;29.80;;;;;;10382814;28;20236;-72
2021/05/26 03:00:34;;;;;;;1.03;0.90;;;12.50;30.00;;;;;;10389936;28;20599;-72
2021/05/26 03:05:37;;;;;;;2.43;1.10;;;12.40;30.00;;;;;;10384370;28;20318;-72
2021/05/26 03:10:40;;;;;;;2.30;0.90;;;12.40;30.00;;;;;;10385821;28;20276;-72
2021/05/26 03:15:43;;;;;;;1.67;0.90;;;12.40;30.00;;;;;;10387384;28;20253;-72
2021/05/26 03:20:46;;;;;;;2.10;1.10;;;12.40;30.00;;;;;;10378986;28;20265;-72
2021/05/26 03:25:50;;;;;;;2.10;1.07;;;12.50;30.00;;;;;;10379690;28;20758;-72
2021/05/26 03:30:52;;;;;;;1.30;1.10;;;12.50;30.00;;;;;;10377855;28;20313;-72
2021/05/26 03:35:55;;;;;;;1.37;0.93;;;12.50;30.00;;;;;;10380352;28;20265;-72
2021/05/26 03:40:59;;;;;;;0.80;0.80;;;12.50;30.00;;;;;;10385242;28;20276;-72
2021/05/26 03:46:01;;;;;;;1.03;0.93;;;12.40;30.00;;;;;;10383250;28;20284;-72
2021/05/26 03:51:05;;;;;;;3.13;1.00;;;12.40;30.00;;;;;;10383173;28;20252;-72
2021/05/26 03:56:08;;;;;;;1.27;0.80;;;12.40;30.00;;;;;;10392141;28;20260;-72
2021/05/26 04:01:11;;;;;;;1.13;0.90;;;12.40;30.00;;;;;;10379991;28;20256;-72
2021/05/26 04:06:14;;;;;;;1.07;0.83;;;12.40;30.00;;;;;;10381095;28;20289;-72
2021/05/26 04:11:18;;;;;;;0.93;0.80;;;12.40;30.00;;;;;;10379681;28;20257;-72
2021/05/26 04:16:20;;;;;;;1.03;0.70;;;12.40;30.00;;;;;;10380604;28;20316;-72
2021/05/26 04:21:23;;;;;;;1.23;1.00;;;12.50;30.00;;;;;;10383314;28;20762;-72
2021/05/26 04:26:27;;;;;;;2.17;0.90;;;12.50;30.00;;;;;;10382196;28;20337;-72
2021/05/26 04:31:30;;;;;;;1.37;0.90;;;12.50;30.00;;;;;;10374982;28;20225;-72
2021/05/26 04:36:32;;;;;;;3.90;1.00;;;12.50;30.00;;;;;;10377758;28;20831;-72
2021/05/26 04:41:36;;;;;;;1.20;0.90;;;12.60;30.00;;;;;;10386767;28;20291;-72
2021/05/26 04:46:39;;;;;;;1.67;0.90;;;12.60;30.10;;;;;;10380971;28;20713;-72
2021/05/26 04:51:41;;;;;;;1.93;0.80;;;12.60;30.00;;;;;;10378975;28;20249;-72
2021/05/26 04:56:45;;;;;;;0.97;0.80;;;12.70;30.10;;;;;;10384888;28;20233;-72
2021/05/26 05:01:48;;;;;;;1.27;1.17;;;12.80;30.20;;;;;;10389151;28;20312;-71
2021/05/26 05:06:51;;;;;;;2.57;1.33;;;12.90;30.30;;;;;;10373419;28;20240;-71
2021/05/26 05:11:55;;;;;;;2.23;1.47;;;13.00;30.40;;;;;;10389194;28;20325;-71
2021/05/26 05:16:57;;;;;;;1.50;1.10;;;13.10;30.40;;;;;;10377199;28;20234;-71
2021/05/26 05:22:00;;;;;;;1.20;1.10;;;13.20;30.50;;;;;;10381206;28;20329;-72
2021/05/26 05:27:04;;;;;;;1.57;1.00;;;13.30;30.60;;;;;;10375195;28;20321;-72
2021/05/26 05:32:10;;;;;;;2.33;1.00;;;13.30;30.60;;;;;;10376606;28;20681;-73
2021/05/26 05:37:13;;;;;;;1.43;0.87;;;13.40;30.70;;;;;;10376751;28;20257;-73
2021/05/26 05:42:17;;;;;;;1.83;1.00;;;13.40;30.70;;;;;;10374888;28;20260;-73
2021/05/26 05:47:20;;;;;;;1.23;1.13;;;13.50;30.80;;;;;;10383723;28;20684;-73
2021/05/26 05:52:22;;;;;;;3.43;1.30;;;13.50;30.80;;;;;;10385330;28;20242;-73
2021/05/26 05:57:26;;;;;;;1.47;1.03;;;13.60;30.90;;;;;;10382128;28;20309;-73
2021/05/26 06:02:29;;;;;;;1.80;0.90;;;13.60;31.30;;;;;;10383002;28;20242;-73
2021/05/26 06:07:32;;;;;;;1.40;1.10;;;13.70;31.10;;;;;;10388531;28;20715;-73
2021/05/26 06:12:35;;;;;;;1.73;1.00;;;13.80;31.10;;;;;;10388564;28;20230;-73
2021/05/26 06:17:39;;;;;;;2.57;1.00;;;13.90;31.10;;;;;;10380822;28;20739;-73
2021/05/26 06:22:42;;;;;;;3.03;1.17;;;14.00;31.20;;;;;;10380581;28;20272;-73
2021/05/26 06:27:46;;;;;;;1.10;1.00;;;14.10;31.40;;;;;;10381996;28;20230;-73
2021/05/26 06:32:48;;;;;;;1.60;1.10;;;14.10;31.30;;;;;;10390929;28;20287;-73
2021/05/26 06:37:51;;;;;;;1.20;1.10;;;14.20;31.40;;;;;;10384752;28;20226;-73
2021/05/26 06:42:55;;;;;;;2.70;1.13;;;14.30;31.50;;;;;;10385065;28;20392;-72
2021/05/26 06:47:58;;;;;;;1.30;1.13;;;14.30;31.50;;;;;;10393062;28;20316;-73
2021/05/26 06:53:00;;;;;;;1.13;0.87;;;14.40;31.60;;;;;;10383224;28;20280;-73
2021/05/26 06:58:04;;;;;;;2.37;1.63;;;14.50;31.70;;;;;;10379602;28;20644;-72
2021/05/26 07:03:07;;;;;;;1.67;1.57;;;14.60;31.80;;;;;;10382609;28;20269;-73
2021/05/26 07:08:10;;;;;;;3.77;2.50;;;14.60;31.80;;;;;;10379999;28;20325;-73
2021/05/26 07:13:13;;;;;;;2.83;1.67;;;14.70;31.80;;;;;;10378568;28;20222;-73
2021/05/26 07:18:16;;;;;;;2.10;1.80;;;14.80;31.90;;;;;;10388762;28;20230;-73
2021/05/26 07:23:19;;;;;;;2.73;1.60;;;14.90;32.00;;;;;;10383504;28;20265;-73
2021/05/26 07:28:23;;;;;;;1.47;0.97;;;15.00;32.10;;;;;;10380967;28;20317;-73
2021/05/26 07:33:25;;;;;;;1.47;1.00;;;15.10;32.20;;;;;;10384936;28;20221;-73
2021/05/26 07:38:28;;;;;;;1.10;1.00;;;15.20;32.30;;;;;;10381815;28;20309;-73
2021/05/26 07:43:33;;;;;;;0.93;0.70;;;15.30;32.40;;;;;;10387495;28;20313;-72
2021/05/26 07:48:36;;;;;;;1.47;1.00;;;15.40;32.50;;;;;;10390031;28;20222;-73
2021/05/26 07:53:39;;;;;;;2.03;1.00;;;15.50;32.10;;;;;;10389779;28;20578;-72
2021/05/26 07:58:42;;;;;;;2.03;0.80;;;15.50;31.90;;;;;;10385714;28;20248;-73
2021/05/26 08:03:45;;;;;;;1.20;0.63;;;15.50;32.00;;;;;;10384999;28;20330;-72
2021/05/26 08:08:48;;;;;;;1.27;0.90;;;15.60;32.10;;;;;;10380499;28;20853;-72
2021/05/26 08:13:52;;;;;;;1.77;1.00;;;15.60;32.30;;;;;;10385071;28;20301;-72
2021/05/26 08:18:55;;;;;;;1.17;0.80;;;15.60;32.50;;;;;;10380730;28;20575;-72
2021/05/26 08:23:58;;;;;;;0.90;0.90;;;15.70;32.30;;;;;;10384496;28;20236;-73
2021/05/26 08:29:04;;;;;;;0.93;0.80;;;15.70;33.20;;;;;;10386612;28;20329;-72
2021/05/26 08:34:06;;;;;;;1.37;1.17;;;15.80;32.90;;;;;;10383504;28;20253;-74
2021/05/26 08:39:09;;;;;;;2.57;0.97;;;15.80;32.60;;;;;;10385406;28;20229;-72
2021/05/26 08:44:14;;;;;;;1.40;1.10;;;15.80;32.20;;;;;;10374516;28;20797;-72
2021/05/26 08:49:18;;;;;;;1.43;1.13;;;15.80;32.80;;;;;;10386965;28;20230;-72
2021/05/26 08:54:21;;;;;;;1.97;1.07;;;15.80;32.80;;;;;;10387592;28;21848;-72
2021/05/26 08:59:24;;;;;;;2.83;1.20;;;15.80;32.80;;;;;;10393967;28;20649;-73
2021/05/26 09:04:29;;;;;;;0.90;0.80;;;15.80;32.80;;;;;;10381302;28;20308;-73
2021/05/26 09:09:34;;;;;;;1.10;1.00;;;15.80;32.80;;;;;;10381410;28;20348;-73
2021/05/26 09:14:38;;;;;;;2.20;1.00;;;15.80;32.80;;;;;;10384951;28;20226;-73
2021/05/26 09:19:41;;;;;;;1.90;1.23;;;15.80;32.80;;;;;;10394498;28;20728;-73
2021/05/26 09:24:43;;;;;;;1.03;0.90;;;15.80;32.80;;;;;;10391606;28;20313;-73
2021/05/26 09:29:47;;;;;;;0.90;0.80;;;15.90;33.00;;;;;;10390134;28;20356;-72
2021/05/26 09:34:51;;;;;;;0.90;0.87;;;15.90;33.00;;;;;;10383390;28;20292;-72
2021/05/26 09:39:57;;;;;;;2.53;1.10;;;16.00;33.00;;;;;;10395075;28;20265;-73
2021/05/26 09:45:07;;;;;;;1.30;1.10;;;15.90;33.70;;;;;;10397118;28;20998;-72
2021/05/26 09:50:28;;;;;;;2.70;1.00;;;16.00;35.40;;;;;;10386540;28;20230;-73
2021/05/26 09:55:33;;;;;;;2.63;1.10;;;16.10;34.90;;;;;;10381597;28;20313;-73
2021/05/26 10:00:40;;;;;;;4.87;1.40;;;16.20;34.20;;;;;;10396145;28;20242;-72
2021/05/26 10:05:43;;;;;;;2.57;1.30;;;16.30;34.40;;;;;;10392542;28;20233;-72
2021/05/26 10:10:48;;;;;;;1.87;1.10;;;16.30;33.30;;;;;;10392659;28;20794;-72
2021/05/26 10:15:52;;;;;;;2.27;0.90;;;16.40;34.50;;;;;;10391189;28;20249;-73
2021/05/26 10:20:55;;;;;;;1.40;1.07;;;16.50;33.60;;;;;;10384875;28;20305;-73
2021/05/26 10:25:58;;;;;;;1.07;0.93;;;16.50;33.80;;;;;;10385051;28;20222;-73
2021/05/26 10:31:04;;;;;;;2.50;1.27;;;16.50;34.20;;;;;;10391168;28;21047;-72
2021/05/26 10:36:08;;;;;;;2.83;1.20;;;16.60;34.10;;;;;;10385680;28;20308;-72
2021/05/26 10:41:11;;;;;;;4.13;1.00;;;16.60;33.50;;;;;;10387328;28;20885;-72
2021/05/26 10:46:35;;;;;;;1.37;1.10;;;16.50;34.10;;;;;;10389656;28;20828;-72
2021/05/26 10:52:09;;;;;;;2.60;1.40;;;16.50;35.00;;;;;;10394943;28;20565;-72
2021/05/26 10:57:11;;;;;;;1.43;1.00;;;16.60;34.90;;;;;;10393517;28;20276;-72
2021/05/26 11:02:18;;;;;;;1.90;1.03;;;16.60;34.30;;;;;;10391050;28;20401;-73
2021/05/26 11:07:24;;;;;;;3.17;1.20;;;16.60;34.90;;;;;;10391167;28;20292;-72
2021/05/26 11:12:27;;;;;;;1.50;1.20;;;16.60;34.70;;;;;;10389045;28;20304;-72
2021/05/26 11:17:40;;;;;;;2.00;1.53;;;16.60;34.30;;;;;;10385649;28;20681;-72
2021/05/26 11:22:43;;;;;;;3.13;2.57;;;16.50;34.70;;;;;;10387930;28;20226;-72
2021/05/26 11:27:50;;;;;;;2.37;1.77;;;16.50;34.40;;;;;;10388994;28;20231;-72
2021/05/26 11:32:55;;;;;;;2.20;2.00;;;16.50;35.00;;;;;;10390303;28;20667;-72
2021/05/26 11:37:58;;;;;;;3.33;2.37;;;16.40;35.00;;;;;;10383712;28;20232;-73
2021/05/26 11:43:02;;;;;;;2.30;1.50;;;16.40;34.80;;;;;;10390273;28;20245;-73
2021/05/26 11:48:08;;;;;;;2.80;1.50;;;16.40;34.70;;;;;;10382371;28;20242;-72
2021/05/26 11:53:19;;;;;;;2.57;1.30;;;16.40;36.30;;;;;;10373642;28;20234;-72
2021/05/26 11:58:33;;;;;;;2.87;1.40;;;16.40;35.90;;;;;;10382959;28;20261;-73
2021/05/26 12:03:37;;;;;;;2.67;1.50;;;16.40;37.10;;;;;;10394310;28;20723;-73
2021/05/26 12:08:42;;;;;;;4.57;1.53;;;16.50;35.80;;;;;;10382315;28;20599;-72
2021/05/26 12:13:46;;;;;;;2.20;1.43;;;16.50;35.50;;;;;;10388882;28;20736;-73
2021/05/26 12:18:51;;;;;;;1.60;1.50;;;16.50;35.90;;;;;;10387650;28;20301;-72
2021/05/26 12:24:01;;;;;;;2.43;1.83;;;16.50;36.30;;;;;;10388387;28;20225;-70
2021/05/26 12:29:09;;;;;;;3.20;2.17;;;16.50;36.50;;;;;;10370746;28;20365;-69
2021/05/26 12:34:16;;;;;;;3.53;2.00;;;16.50;36.20;;;;;;10341133;28;20237;-70
2021/05/26 12:39:20;;;;;;;3.27;1.83;;;16.40;37.50;;;;;;10361028;28;20254;-70
2021/05/26 12:44:24;;;;;;;3.23;1.70;;;16.40;36.30;;;;;;10336929;28;20321;-71
2021/05/26 12:49:43;;;;;;;2.70;1.80;;;16.40;36.30;;;;;;10371931;28;20777;-70
2021/05/26 12:54:47;;;;;;;2.53;1.60;;;16.40;37.60;;;;;;10340167;28;20706;-70
2021/05/26 12:59:54;;;;;;;2.80;1.80;;;16.40;36.50;;;;;;10359893;28;20722;-72
2021/05/26 13:04:59;;;;;;;3.23;1.70;;;16.40;37.70;;;;;;10373234;28;20316;-70
2021/05/26 13:10:21;;;;;;;2.57;1.83;;;16.40;37.00;;;;;;10372800;28;20253;-72
2021/05/26 13:15:27;;;;;;;3.30;2.10;;;16.40;37.60;;;;;;10372561;28;20230;-71
2021/05/26 13:20:32;;;;;;;3.27;2.40;;;16.40;37.10;;;;;;10371104;28;20226;-70
2021/05/26 13:25:36;;;;;;;3.60;2.40;;;16.40;37.40;;;;;;10372344;28;20257;-70
2021/05/26 13:30:41;;;;;;;4.67;3.43;;;16.40;37.00;;;;;;10372185;28;20254;-69
2021/05/26 13:35:45;;;;;;;4.23;2.93;;;16.40;37.00;;;;;;10372176;28;20276;-70
2021/05/26 13:40:49;;;;;;;3.97;2.87;;;16.40;37.30;;;;;;10368062;28;20288;-70
2021/05/26 13:45:52;;;;;;;3.83;2.93;;;16.40;37.30;;;;;;10369964;28;20254;-71
2021/05/26 13:50:55;;;;;;;3.13;2.13;;;16.40;37.10;;;;;;10361746;28;20225;-71
2021/05/26 13:55:58;;;;;;;4.30;2.27;;;16.40;38.40;;;;;;10330902;28;20285;-71
2021/05/26 14:01:01;;;;;;;3.47;2.20;;;16.40;37.40;;;;;;10330193;28;20306;-72
2021/05/26 14:06:05;;;;;;;3.37;2.20;;;16.40;37.30;;;;;;10329503;28;20607;-72
2021/05/26 14:11:08;;;;;;;7.23;4.63;;;16.30;37.90;;;;;;10324833;28;20229;-71
2021/05/26 14:16:11;;;;;;;3.47;2.70;;;16.30;37.50;;;;;;10329615;28;20261;-72
2021/05/26 14:21:14;;;;;;;3.10;2.43;;;16.20;37.70;;;;;;10330227;28;20227;-71
2021/05/26 14:26:17;;;;;;;4.47;2.07;;;16.20;38.20;;;;;;10320420;28;20552;-72
2021/05/26 14:31:20;;;;;;;2.97;1.80;;;16.20;37.90;;;;;;10318852;28;20310;-71
2021/05/26 14:36:27;;;;;;;2.80;1.80;;;16.20;37.90;;;;;;10301689;28;20289;-70
2021/05/26 14:41:30;;;;;;;3.73;1.90;;;16.10;38.30;;;;;;10327607;28;20257;-71
2021/05/26 14:46:32;;;;;;;4.10;1.90;;;16.10;38.00;;;;;;10358729;28;20267;-70
2021/05/26 14:51:36;;;;;;;2.83;1.73;;;16.00;38.00;;;;;;10388882;28;20308;-71
2021/05/26 14:56:41;;;;;;;2.90;1.93;;;15.90;38.40;;;;;;10359415;28;20787;-71
2021/05/26 15:01:43;;;;;;;2.63;1.97;;;15.90;38.40;;;;;;10369347;28;20314;-71
2021/05/26 15:06:47;;;;;;;3.90;1.90;;;15.80;38.20;;;;;;10369431;28;20345;-71
2021/05/26 15:11:50;;;;;;;3.00;1.70;;;15.80;38.70;;;;;;10348990;28;20325;-70
2021/05/26 15:16:53;;;;;;;2.40;1.80;;;15.70;38.50;;;;;;10376373;28;20230;-70
2021/05/26 15:21:56;;;;;;;1.77;1.60;;;15.70;38.60;;;;;;10367925;28;20281;-70
2021/05/26 15:26:59;;;;;;;5.77;2.10;;;15.70;38.90;;;;;;10368513;28;20232;-68
2021/05/26 15:32:02;;;;;;;4.30;1.60;;;15.70;38.70;;;;;;10372684;28;20320;-69
2021/05/26 15:37:05;;;;;;;3.80;1.80;;;15.70;38.80;;;;;;10408187;28;20253;-68
2021/05/26 15:42:09;;;;;;;2.73;2.10;;;15.70;38.90;;;;;;10382338;28;20309;-69
2021/05/26 15:47:11;;;;;;;2.93;2.10;;;15.70;39.00;;;;;;10365869;28;20234;-69
2021/05/26 15:52:15;;;;;;;3.17;2.50;;;15.70;39.10;;;;;;10364560;28;20696;-69
2021/05/26 15:57:18;;;;;;;3.33;2.00;;;15.70;39.30;;;;;;10366676;28;20230;-68
2021/05/26 16:02:21;;;;;;;2.87;1.70;;;15.70;39.10;;;;;;10366648;28;20222;-68
2021/05/26 16:07:24;;;;;;;2.00;1.83;;;15.80;39.80;;;;;;10360983;28;20284;-70
2021/05/26 16:12:27;;;;;;;3.40;1.97;;;15.80;39.80;;;;;;10326359;28;20257;-70
2021/05/26 16:17:30;;;;;;;1.97;1.60;;;15.80;39.20;;;;;;10326442;28;20306;-69
2021/05/26 16:22:34;;;;;;;22.07;2.67;;;15.80;39.50;;;;;;10326374;28;20222;-69
2021/05/26 16:27:37;;;;;;;2.00;1.53;;;15.80;39.80;;;;;;10335734;28;20237;-70
2021/05/26 16:32:41;;;;;;;2.67;1.90;;;15.90;39.50;;;;;;10364927;28;20313;-70
2021/05/26 16:37:45;;;;;;;2.10;1.60;;;16.00;39.50;;;;;;10366123;28;20753;-70
2021/05/26 16:42:48;;;;;;;2.57;1.80;;;16.00;39.60;;;;;;10354250;28;20301;-70
2021/05/26 16:47:51;;;;;;;2.07;1.73;;;16.00;39.40;;;;;;10374212;28;20312;-70
2021/05/26 16:53:10;;;;;;;1.73;1.50;;;16.00;39.60;;;;;;10384988;28;20221;-69
2021/05/26 16:58:13;;;;;;;2.30;1.73;;;16.10;39.90;;;;;;10403233;28;20233;-70
2021/05/26 17:03:15;;;;;;;1.87;1.47;;;16.10;39.60;;;;;;10406378;28;20245;-70
2021/05/26 17:08:19;;;;;;;2.07;1.40;;;16.20;39.50;;;;;;10406469;28;20225;-70
2021/05/26 17:13:22;;;;;;;2.07;1.37;;;16.20;39.50;;;;;;10395555;28;20692;-69
2021/05/26 17:18:25;;;;;;;2.83;1.73;;;16.20;39.30;;;;;;10406207;28;20576;-70
2021/05/26 17:23:31;;;;;;;1.70;1.50;;;16.20;39.40;;;;;;10406080;28;20762;-70
2021/05/26 17:28:34;;;;;;;3.43;1.70;;;16.20;39.70;;;;;;10405757;28;20613;-69
2021/05/26 17:33:38;;;;;;;2.73;1.50;;;16.20;39.90;;;;;;10389306;28;20659;-70
2021/05/26 17:38:42;;;;;;;2.83;1.53;;;16.30;39.50;;;;;;10405438;28;20268;-70
2021/05/26 17:43:46;;;;;;;2.47;1.53;;;16.20;39.70;;;;;;10407066;28;20246;-69
2021/05/26 17:48:49;;;;;;;3.83;1.77;;;16.20;39.50;;;;;;10411754;28;20230;-69
2021/05/26 17:53:53;;;;;;;3.63;1.80;;;16.20;39.60;;;;;;10409737;28;20714;-70
2021/05/26 17:58:55;;;;;;;1.93;1.60;;;16.20;39.80;;;;;;10409772;28;20221;-70
2021/05/26 18:03:58;;;;;;;3.03;1.90;;;16.20;39.60;;;;;;10410359;28;20308;-70
2021/05/26 18:09:03;;;;;;;2.27;1.90;;;16.20;39.90;;;;;;10411589;28;20713;-70
2021/05/26 18:14:06;;;;;;;2.53;1.57;;;16.10;40.00;;;;;;10412302;28;20241;-69
2021/05/26 18:19:09;;;;;;;3.20;1.70;;;16.10;40.00;;;;;;10411555;28;20233;-70
2021/05/26 18:24:14;;;;;;;2.40;1.43;;;16.00;40.00;;;;;;10411550;28;20261;-69
2021/05/26 18:29:17;;;;;;;1.60;1.50;;;16.00;40.60;;;;;;10411626;28;20237;-69
2021/05/26 18:34:20;;;;;;;3.70;1.70;;;16.00;40.20;;;;;;10411628;28;20287;-69
2021/05/26 18:39:23;;;;;;;1.93;1.43;;;16.00;40.00;;;;;;10411698;28;20653;-69
2021/05/26 18:44:26;;;;;;;2.33;1.57;;;16.00;41.00;;;;;;10411333;28;20308;-69
2021/05/26 18:49:29;;;;;;;1.93;1.30;;;16.00;40.00;;;;;;10409577;28;20601;-69
2021/05/26 18:54:33;;;;;;;1.70;1.60;;;16.00;40.10;;;;;;10405374;28;20249;-69
2021/05/26 18:59:35;;;;;;;1.67;1.53;;;16.00;40.20;;;;;;10405843;28;20305;-69
2021/05/26 19:04:39;;;;;;;1.93;1.57;;;16.00;40.00;;;;;;10402875;28;20234;-69
2021/05/26 19:09:43;;;;;;;2.23;1.80;;;16.00;40.00;;;;;;10406082;28;20225;-70
2021/05/26 19:14:47;;;;;;;3.53;2.00;;;15.90;40.30;;;;;;10407457;28;20254;-70
2021/05/26 19:19:50;;;;;;;2.03;1.70;;;15.90;40.30;;;;;;10404498;28;20300;-71
2021/05/26 19:24:57;;;;;;;3.87;1.70;;;15.80;40.30;;;;;;10403464;28;20253;-70
2021/05/26 19:30:00;;;;;;;5.33;3.40;;;15.80;40.50;;;;;;10403410;28;20308;-70
2021/05/26 19:35:03;;;;;;;4.17;3.20;;;15.80;40.50;;;;;;10399981;28;20652;-70
2021/05/26 19:40:09;;;;;;;4.77;3.07;;;15.80;40.50;;;;;;10399813;28;20620;-69
2021/05/26 19:45:12;;;;;;;1.80;1.70;;;15.80;40.90;;;;;;10400991;28;20328;-70
2021/05/26 19:50:36;;;;;;;2.70;2.00;;;15.70;40.50;;;;;;10400034;28;20230;-70
2021/05/26 19:55:40;;;;;;;1.20;1.10;;;15.70;40.20;;;;;;10400578;28;20578;-70
2021/05/26 20:00:43;;;;;;;1.80;1.10;;;15.70;39.90;;;;;;10389341;28;20242;-70
2021/05/26 20:06:05;;;;;;;1.03;0.80;;;15.60;39.60;;;;;;10358235;28;20229;-69
2021/05/26 20:11:09;;;;;;;1.40;0.90;;;15.50;39.20;;;;;;10387673;28;20357;-71
2021/05/26 20:16:13;;;;;;;1.33;0.70;;;15.40;39.30;;;;;;10394887;28;20233;-70
2021/05/26 20:21:20;;;;;;;0.97;0.80;;;15.20;39.00;;;;;;10386702;28;20312;-70
2021/05/26 20:26:24;;;;;;;2.90;1.10;;;15.10;39.20;;;;;;10401362;28;20230;-70
2021/05/26 20:31:28;;;;;;;1.20;1.10;;;15.10;39.10;;;;;;10406392;28;20626;-71
2021/05/26 20:36:30;;;;;;;1.20;1.10;;;15.00;38.90;;;;;;10406934;28;20229;-71
2021/05/26 20:41:34;;;;;;;0.70;0.70;;;14.90;38.90;;;;;;10406588;28;20690;-70
2021/05/26 20:46:37;;;;;;;1.13;0.60;;;14.90;38.60;;;;;;10405285;28;20324;-70
2021/05/26 20:51:40;;;;;;;1.57;0.70;;;14.80;38.70;;;;;;10363950;28;20798;-71
2021/05/26 20:56:43;;;;;;;1.00;0.80;;;14.70;38.30;;;;;;10389489;28;20612;-70
2021/05/26 21:01:46;;;;;;;1.23;0.60;;;14.60;38.30;;;;;;10402479;28;20237;-71
2021/05/26 21:06:49;;;;;;;0.70;0.70;;;14.60;38.40;;;;;;10379958;28;20240;-70
2021/05/26 21:11:53;;;;;;;1.33;0.90;;;14.50;38.40;;;;;;10380297;28;20269;-70
2021/05/26 21:16:56;;;;;;;0.70;0.70;;;14.40;38.60;;;;;;10375984;28;20714;-70
2021/05/26 21:21:58;;;;;;;0.90;0.80;;;14.20;38.70;;;;;;10407249;28;20312;-71
2021/05/26 21:27:02;;;;;;;0.80;0.80;;;14.20;38.90;;;;;;10411571;28;20242;-70
2021/05/26 21:32:06;;;;;;;1.03;0.80;;;14.20;39.10;;;;;;10408524;28;20312;-71
2021/05/26 21:37:09;;;;;;;0.83;0.80;;;14.10;39.60;;;;;;10411220;28;20316;-71
2021/05/26 21:42:13;;;;;;;0.60;0.60;;;14.00;38.90;;;;;;10410602;28;20308;-71
2021/05/26 21:47:16;;;;;;;1.80;0.77;;;13.90;39.00;;;;;;10397022;28;20673;-71
2021/05/26 21:52:18;;;;;;;0.77;0.77;;;13.80;39.00;;;;;;10375706;28;20870;-70
2021/05/26 21:57:22;;;;;;;0.70;0.70;;;13.80;39.30;;;;;;10404128;28;20260;-71
2021/05/26 22:02:25;;;;;;;0.83;0.83;;;13.70;39.30;;;;;;10382861;28;20236;-70
2021/05/26 22:07:27;;;;;;;0.80;0.80;;;13.70;39.40;;;;;;10396593;28;20280;-71
2021/05/26 22:12:31;;;;;;;2.50;1.00;;;13.70;39.50;;;;;;10410086;28;20308;-70
2021/05/26 22:17:34;;;;;;;0.70;0.70;;;13.60;39.60;;;;;;10409439;28;20233;-71
2021/05/26 22:22:36;;;;;;;0.97;0.70;;;13.50;39.80;;;;;;10409203;28;20280;-70
2021/05/26 22:27:41;;;;;;;1.27;0.97;;;13.50;39.60;;;;;;10409462;28;20337;-70
2021/05/26 22:32:44;;;;;;;0.97;0.90;;;13.50;39.80;;;;;;10399546;28;20301;-71
2021/05/26 22:37:49;;;;;;;1.10;0.90;;;13.50;39.80;;;;;;10371026;28;20276;-70
2021/05/26 22:42:53;;;;;;;1.63;0.80;;;13.50;39.80;;;;;;10409716;28;20225;-70
2021/05/26 22:47:57;;;;;;;0.80;0.80;;;13.50;40.00;;;;;;10410193;28;20268;-70
2021/05/26 22:53:00;;;;;;;0.90;0.90;;;13.50;40.00;;;;;;10404073;28;20225;-70
2021/05/26 22:58:04;;;;;;;1.27;0.90;;;13.50;39.80;;;;;;10410666;28;20214;-71
2021/05/26 23:03:22;;;;;;;0.90;0.90;;;13.50;39.90;;;;;;10410466;28;20667;-71
2021/05/26 23:08:25;;;;;;;0.80;0.80;;;13.50;40.00;;;;;;10410283;28;20267;-71
2021/05/26 23:13:29;;;;;;;0.90;0.90;;;13.30;39.80;;;;;;10407235;28;20250;-71
2021/05/26 23:18:32;;;;;;;0.70;0.70;;;13.30;40.10;;;;;;10399463;28;20720;-70
2021/05/26 23:23:34;;;;;;;0.90;0.90;;;13.20;40.20;;;;;;10396334;28;20308;-69
2021/05/26 23:28:38;;;;;;;0.93;0.90;;;13.20;40.40;;;;;;10408081;28;20233;-70
2021/05/26 23:33:40;;;;;;;0.70;0.70;;;13.20;40.60;;;;;;10403795;28;20313;-71
2021/05/26 23:38:43;;;;;;;0.80;0.80;;;13.20;40.30;;;;;;10380840;28;20309;-71
2021/05/26 23:43:47;;;;;;;1.10;1.00;;;13.20;40.40;;;;;;10386459;28;20318;-71
2021/05/26 23:48:49;;;;;;;0.90;0.90;;;13.20;40.60;;;;;;10396939;28;20233;-70
2021/05/26 23:53:52;;;;;;;1.17;1.00;;;13.10;40.40;;;;;;10374150;28;20229;-71
2021/05/26 23:58:55;;;;;;;1.77;1.13;;;13.10;40.40;;;;;;10405558;28;21261;-71
